createdAt,value
2022-10-18T04:45:59.644Z,1012.46
2022-10-18T04:47:00.631Z,1012.46
2022-10-18T04:48:00.611Z,1012.46
2022-10-18T04:49:00.604Z,1012.46
2022-10-18T04:50:00.609Z,1012.46
2022-10-18T04:51:00.585Z,1012.45
2022-10-18T04:52:00.576Z,1012.44
2022-10-18T04:53:00.585Z,1012.44
2022-10-18T04:54:00.556Z,1012.43
2022-10-18T04:55:00.554Z,1012.42
2022-10-18T04:56:00.524Z,1012.43
2022-10-18T04:57:00.519Z,1012.45
2022-10-18T04:58:00.502Z,1012.46
2022-10-18T04:59:00.500Z,1012.47
2022-10-18T05:00:00.497Z,1012.48
2022-10-18T05:01:00.488Z,1012.49
2022-10-18T05:02:00.590Z,1012.49
2022-10-18T05:03:00.453Z,1012.50
2022-10-18T05:04:00.440Z,1012.51
2022-10-18T05:05:00.446Z,1012.52
2022-10-18T05:06:03.189Z,1012.53
2022-10-18T05:07:00.416Z,1012.53
2022-10-18T05:08:00.397Z,1012.53
2022-10-18T05:09:00.398Z,1012.52
2022-10-18T05:10:00.376Z,1012.51
2022-10-18T05:11:00.438Z,1012.51
2022-10-18T05:12:00.352Z,1012.51
2022-10-18T05:13:00.348Z,1012.52
2022-10-18T05:14:00.350Z,1012.52
2022-10-18T05:15:00.327Z,1012.53
2022-10-18T05:16:00.364Z,1012.54
2022-10-18T05:17:00.302Z,1012.55
2022-10-18T05:18:00.283Z,1012.56
2022-10-18T05:19:00.276Z,1012.57
2022-10-18T05:20:00.390Z,1012.57
2022-10-18T05:21:00.260Z,1012.56
2022-10-18T05:22:00.243Z,1012.55
2022-10-18T05:23:00.242Z,1012.53
2022-10-18T05:24:00.232Z,1012.51
2022-10-18T05:25:00.230Z,1012.50
2022-10-18T05:26:00.203Z,1012.49
2022-10-18T05:27:00.203Z,1012.48
2022-10-18T05:28:06.265Z,1012.49
2022-10-18T05:29:00.337Z,1012.48
2022-10-18T05:30:02.922Z,1012.48
2022-10-18T05:31:00.157Z,1012.48
2022-10-18T05:32:00.141Z,1012.47
2022-10-18T05:33:00.129Z,1012.47
2022-10-18T05:34:00.134Z,1012.47
2022-10-18T05:35:00.118Z,1012.47
2022-10-18T05:36:00.125Z,1012.48
2022-10-18T05:37:00.094Z,1012.50
2022-10-18T05:38:00.072Z,1012.51
2022-10-18T05:39:02.552Z,1012.53
2022-10-18T05:40:00.053Z,1012.53
2022-10-18T05:41:00.045Z,1012.54
2022-10-18T05:42:00.028Z,1012.55
2022-10-18T05:43:00.027Z,1012.55
2022-10-18T05:44:00.023Z,1012.55
2022-10-18T05:45:00.000Z,1012.56
2022-10-18T05:46:00.012Z,1012.56
2022-10-18T05:47:00.001Z,1012.57
2022-10-18T05:47:59.967Z,1012.58
2022-10-18T05:48:59.983Z,1012.60
2022-10-18T05:49:59.940Z,1012.60
2022-10-18T05:50:59.958Z,1012.61
2022-10-18T05:51:59.926Z,1012.61
2022-10-18T05:53:11.856Z,1012.62
2022-10-18T05:53:59.920Z,1012.62
2022-10-18T05:54:59.913Z,1012.62
2022-10-18T05:55:59.881Z,1012.62
2022-10-18T05:56:59.872Z,1012.62
2022-10-18T05:57:59.854Z,1012.61
2022-10-18T05:58:59.867Z,1012.61
2022-10-18T05:59:59.839Z,1012.60
2022-10-18T06:00:59.869Z,1012.59
2022-10-18T06:01:59.811Z,1012.59
2022-10-18T06:03:00.519Z,1012.58
2022-10-18T06:03:59.820Z,1012.59
2022-10-18T06:04:59.785Z,1012.59
2022-10-18T06:05:59.768Z,1012.60
2022-10-18T06:06:59.771Z,1012.61
2022-10-18T06:07:59.752Z,1012.62
2022-10-18T06:08:59.757Z,1012.62
2022-10-18T06:09:59.737Z,1012.62
2022-10-18T06:10:59.718Z,1012.63
2022-10-18T06:11:59.711Z,1012.64
2022-10-18T06:12:59.703Z,1012.66
2022-10-18T06:13:59.706Z,1012.67
2022-10-18T06:14:59.694Z,1012.68
2022-10-18T06:15:59.666Z,1012.69
2022-10-18T06:16:59.660Z,1012.70
2022-10-18T06:17:59.645Z,1012.72
2022-10-18T06:18:59.650Z,1012.74
2022-10-18T06:19:59.622Z,1012.75
2022-10-18T06:20:59.608Z,1012.76
2022-10-18T06:21:59.626Z,1012.77
2022-10-18T06:22:59.588Z,1012.76
2022-10-18T06:23:59.587Z,1012.74
2022-10-18T06:24:59.567Z,1012.72
2022-10-18T06:25:59.556Z,1012.71
2022-10-18T06:26:59.581Z,1012.72
2022-10-18T06:27:59.537Z,1012.75
2022-10-18T06:28:59.582Z,1012.79
2022-10-18T06:29:59.508Z,1012.82
2022-10-18T06:30:59.514Z,1012.85
2022-10-18T06:31:59.494Z,1012.86
2022-10-18T06:32:59.480Z,1012.87
2022-10-18T06:33:59.487Z,1012.87
2022-10-18T06:34:59.464Z,1012.86
2022-10-18T06:35:59.448Z,1012.86
2022-10-18T06:36:59.444Z,1012.85
2022-10-18T06:37:59.433Z,1012.85
2022-10-18T06:38:59.441Z,1012.84
2022-10-18T06:39:59.403Z,1012.84
2022-10-18T06:40:59.405Z,1012.83
2022-10-18T06:41:59.389Z,1012.84
2022-10-18T06:43:10.577Z,1012.86
2022-10-18T06:43:59.380Z,1012.88
2022-10-18T06:44:59.358Z,1012.90
2022-10-18T06:45:59.345Z,1012.91
2022-10-18T06:46:59.334Z,1012.92
2022-10-18T06:47:59.321Z,1012.93
2022-10-18T06:48:59.331Z,1012.94
2022-10-18T06:49:59.299Z,1012.96
2022-10-18T06:50:59.291Z,1012.97
2022-10-18T06:51:59.274Z,1012.97
2022-10-18T06:52:59.274Z,1012.97
2022-10-18T06:54:13.393Z,1012.97
2022-10-18T06:54:59.252Z,1012.97
2022-10-18T06:55:59.235Z,1012.97
2022-10-18T06:56:59.227Z,1012.98
2022-10-18T06:57:59.211Z,1013.00
2022-10-18T06:59:59.195Z,1013.03
2022-10-18T07:00:59.186Z,1013.04
2022-10-18T07:01:59.238Z,1013.06
2022-10-18T07:02:59.159Z,1013.06
2022-10-18T07:03:59.158Z,1013.06
2022-10-18T07:04:59.144Z,1013.06
2022-10-18T07:05:59.126Z,1013.07
2022-10-18T07:06:59.118Z,1013.08
2022-10-18T07:07:59.108Z,1013.09
2022-10-18T07:08:59.108Z,1013.12
2022-10-18T07:09:59.096Z,1013.15
2022-10-18T07:10:59.078Z,1013.17
2022-10-18T07:11:59.063Z,1013.18
2022-10-18T07:13:13.572Z,1013.19
2022-10-18T07:13:59.063Z,1013.21
2022-10-18T07:14:59.030Z,1013.21
2022-10-18T07:15:59.025Z,1013.21
2022-10-18T07:16:59.007Z,1013.18
2022-10-18T07:17:58.997Z,1013.17
2022-10-18T07:18:58.997Z,1013.16
2022-10-18T07:19:58.974Z,1013.16
2022-10-18T07:20:58.964Z,1013.16
2022-10-18T07:21:58.954Z,1013.17
2022-10-18T07:22:58.947Z,1013.19
2022-10-18T07:23:58.967Z,1013.19
2022-10-18T07:24:58.925Z,1013.19
2022-10-18T07:25:58.916Z,1013.19
2022-10-18T07:26:58.900Z,1013.21
2022-10-18T07:27:58.892Z,1013.22
2022-10-18T07:28:59.073Z,1013.23
2022-10-18T07:29:58.873Z,1013.24
2022-10-18T07:31:02.445Z,1013.26
2022-10-18T07:31:58.857Z,1013.29
2022-10-18T07:32:58.835Z,1013.32
2022-10-18T07:33:58.842Z,1013.34
2022-10-18T07:34:58.865Z,1013.38
2022-10-18T07:35:58.803Z,1013.40
2022-10-18T07:36:58.790Z,1013.43
2022-10-18T07:37:58.779Z,1013.45
2022-10-18T07:38:58.777Z,1013.46
2022-10-18T07:39:58.759Z,1013.47
2022-10-18T07:40:58.742Z,1013.48
2022-10-18T07:41:58.736Z,1013.49
2022-10-18T07:43:02.723Z,1013.49
2022-10-18T07:43:58.736Z,1013.49
2022-10-18T07:44:58.699Z,1013.49
2022-10-18T07:45:58.697Z,1013.50
2022-10-18T07:46:58.683Z,1013.52
2022-10-18T07:47:58.673Z,1013.55
2022-10-18T07:48:58.672Z,1013.57
2022-10-18T07:49:58.653Z,1013.59
2022-10-18T07:50:58.637Z,1013.60
2022-10-18T07:51:58.635Z,1013.59
2022-10-18T07:52:58.620Z,1013.58
2022-10-18T07:53:58.622Z,1013.55
2022-10-18T07:54:58.598Z,1013.52
2022-10-18T07:55:58.588Z,1013.49
2022-10-18T07:56:58.573Z,1013.48
2022-10-18T07:57:58.571Z,1013.49
2022-10-18T07:58:58.563Z,1013.52
2022-10-18T07:59:58.548Z,1013.56
2022-10-18T08:00:58.530Z,1013.59
2022-10-18T08:01:58.544Z,1013.63
2022-10-18T08:02:58.508Z,1013.65
2022-10-18T08:04:01.056Z,1013.65
2022-10-18T08:04:58.487Z,1013.65
2022-10-18T08:05:58.536Z,1013.65
2022-10-18T08:06:58.474Z,1013.65
2022-10-18T08:07:58.459Z,1013.66
2022-10-18T08:08:58.463Z,1013.67
2022-10-18T08:09:58.436Z,1013.69
2022-10-18T08:10:58.421Z,1013.70
2022-10-18T08:11:58.413Z,1013.72
2022-10-18T08:12:58.400Z,1013.74
2022-10-18T08:13:58.412Z,1013.75
2022-10-18T08:14:58.377Z,1013.77
2022-10-18T08:15:58.368Z,1013.79
2022-10-18T08:16:58.360Z,1013.80
2022-10-18T08:17:58.510Z,1013.80
2022-10-18T08:18:58.347Z,1013.80
2022-10-18T08:20:11.903Z,1013.79
2022-10-18T08:20:58.326Z,1013.79
2022-10-18T08:21:58.312Z,1013.80
2022-10-18T08:23:00.299Z,1013.81
2022-10-18T08:23:58.281Z,1013.82
2022-10-18T08:24:58.274Z,1013.83
2022-10-18T08:25:58.268Z,1013.83
2022-10-18T08:26:58.252Z,1013.85
2022-10-18T08:27:58.246Z,1013.86
2022-10-18T08:29:17.590Z,1013.87
2022-10-18T08:29:58.282Z,1013.88
2022-10-18T08:30:58.205Z,1013.89
2022-10-18T08:31:58.200Z,1013.90
2022-10-18T08:32:58.187Z,1013.90
2022-10-18T08:33:58.191Z,1013.92
2022-10-18T08:34:58.162Z,1013.92
2022-10-18T08:35:58.155Z,1013.94
2022-10-18T08:36:58.145Z,1013.96
2022-10-18T08:37:58.132Z,1013.96
2022-10-18T08:38:58.132Z,1013.98
2022-10-18T08:39:58.111Z,1013.99
2022-10-18T08:40:58.095Z,1014.00
2022-10-18T08:41:58.091Z,1014.01
2022-10-18T08:42:58.076Z,1014.01
2022-10-18T08:43:58.409Z,1014.02
2022-10-18T08:44:58.053Z,1014.03
2022-10-18T08:45:58.049Z,1014.03
2022-10-18T08:46:58.028Z,1014.04
2022-10-18T08:47:58.021Z,1014.04
2022-10-18T08:48:58.028Z,1014.04
2022-10-18T08:49:58.002Z,1014.05
2022-10-18T08:50:57.996Z,1014.05
2022-10-18T08:51:57.983Z,1014.05
2022-10-18T08:52:57.964Z,1014.07
2022-10-18T08:53:57.971Z,1014.07
2022-10-18T08:54:57.945Z,1014.07
2022-10-18T08:55:57.935Z,1014.07
2022-10-18T08:56:57.923Z,1014.07
2022-10-18T08:57:57.931Z,1014.08
2022-10-18T08:58:57.903Z,1014.11
2022-10-18T08:59:57.891Z,1014.15
2022-10-18T09:00:57.879Z,1014.18
2022-10-18T09:01:57.869Z,1014.20
2022-10-18T09:02:57.907Z,1014.21
2022-10-18T09:03:57.849Z,1014.22
2022-10-18T09:04:57.836Z,1014.21
2022-10-18T09:05:57.825Z,1014.20
2022-10-18T09:06:57.816Z,1014.19
2022-10-18T09:07:57.806Z,1014.18
2022-10-18T09:08:57.809Z,1014.19
2022-10-18T09:09:57.782Z,1014.19
2022-10-18T09:12:01.033Z,1014.18
2022-10-18T09:12:57.751Z,1014.18
2022-10-18T09:13:57.755Z,1014.18
2022-10-18T09:14:57.727Z,1014.18
2022-10-18T09:15:57.720Z,1014.18
2022-10-18T09:16:57.706Z,1014.19
2022-10-18T09:17:57.700Z,1014.20
2022-10-18T09:18:57.699Z,1014.21
2022-10-18T09:19:57.722Z,1014.22
2022-10-18T09:20:57.668Z,1014.23
2022-10-18T09:21:57.653Z,1014.23
2022-10-18T09:22:57.636Z,1014.24
2022-10-18T09:23:57.653Z,1014.24
2022-10-18T09:24:57.616Z,1014.24
2022-10-18T09:25:57.615Z,1014.24
2022-10-18T09:26:57.598Z,1014.22
2022-10-18T09:27:57.603Z,1014.22
2022-10-18T09:28:57.682Z,1014.23
2022-10-18T09:29:57.567Z,1014.25
2022-10-18T09:30:59.528Z,1014.28
2022-10-18T09:31:57.545Z,1014.31
2022-10-18T09:32:57.552Z,1014.33
2022-10-18T09:33:57.529Z,1014.35
2022-10-18T09:34:57.516Z,1014.36
2022-10-18T09:35:57.506Z,1014.34
2022-10-18T09:36:57.484Z,1014.33
2022-10-18T09:37:57.495Z,1014.32
2022-10-18T09:39:00.271Z,1014.32
2022-10-18T09:39:57.462Z,1014.31
2022-10-18T09:40:57.446Z,1014.32
2022-10-18T09:41:57.435Z,1014.33
2022-10-18T09:42:57.441Z,1014.33
2022-10-18T09:43:57.419Z,1014.36
2022-10-18T09:44:57.405Z,1014.37
2022-10-18T09:45:57.397Z,1014.37
2022-10-18T09:46:57.373Z,1014.37
2022-10-18T09:47:57.372Z,1014.35
2022-10-18T09:48:57.370Z,1014.34
2022-10-18T09:49:57.350Z,1014.32
2022-10-18T09:50:57.330Z,1014.31
2022-10-18T09:51:57.328Z,1014.27
2022-10-18T09:52:57.311Z,1014.25
2022-10-18T09:53:57.327Z,1014.25
2022-10-18T09:54:57.292Z,1014.24
2022-10-18T09:55:57.284Z,1014.23
2022-10-18T09:56:57.318Z,1014.25
2022-10-18T09:57:57.265Z,1014.26
2022-10-18T09:58:57.257Z,1014.28
2022-10-18T09:59:57.243Z,1014.29
2022-10-18T10:00:57.227Z,1014.30
2022-10-18T10:01:57.231Z,1014.29
2022-10-18T10:02:57.204Z,1014.28
2022-10-18T10:03:57.215Z,1014.27
2022-10-18T10:04:57.299Z,1014.27
2022-10-18T10:05:57.175Z,1014.26
2022-10-18T10:06:57.164Z,1014.25
2022-10-18T10:07:57.238Z,1014.26
2022-10-18T10:08:57.153Z,1014.24
2022-10-18T10:09:57.128Z,1014.24
2022-10-18T10:10:57.115Z,1014.24
2022-10-18T10:11:57.113Z,1014.27
2022-10-18T10:12:57.096Z,1014.29
2022-10-18T10:13:57.101Z,1014.32
2022-10-18T10:14:57.072Z,1014.32
2022-10-18T10:15:57.067Z,1014.31
2022-10-18T10:16:57.053Z,1014.30
2022-10-18T10:17:57.043Z,1014.28
2022-10-18T10:18:57.040Z,1014.27
2022-10-18T10:19:57.019Z,1014.29
2022-10-18T10:20:57.017Z,1014.31
2022-10-18T10:21:57.003Z,1014.34
2022-10-18T10:22:56.982Z,1014.36
2022-10-18T10:23:56.991Z,1014.38
2022-10-18T10:24:56.965Z,1014.37
2022-10-18T10:25:56.956Z,1014.36
2022-10-18T10:26:56.943Z,1014.32
2022-10-18T10:27:56.941Z,1014.33
2022-10-18T10:28:57.008Z,1014.31
2022-10-18T10:29:56.918Z,1014.33
2022-10-18T10:30:56.896Z,1014.35
2022-10-18T10:31:56.892Z,1014.38
2022-10-18T10:32:56.877Z,1014.41
2022-10-18T10:33:56.895Z,1014.44
2022-10-18T10:34:56.863Z,1014.46
2022-10-18T10:35:56.847Z,1014.47
2022-10-18T10:36:56.833Z,1014.46
2022-10-18T10:37:56.825Z,1014.44
2022-10-18T10:38:56.814Z,1014.45
2022-10-18T10:40:17.263Z,1014.44
2022-10-18T10:40:56.810Z,1014.43
2022-10-18T10:41:56.780Z,1014.44
2022-10-18T10:43:04.288Z,1014.45
2022-10-18T10:43:56.763Z,1014.47
2022-10-18T10:44:56.763Z,1014.48
2022-10-18T10:45:56.736Z,1014.51
2022-10-18T10:46:56.723Z,1014.52
2022-10-18T10:47:56.713Z,1014.50
2022-10-18T10:49:15.323Z,1014.50
2022-10-18T10:49:56.714Z,1014.49
2022-10-18T10:50:56.681Z,1014.50
2022-10-18T10:52:08.325Z,1014.51
2022-10-18T10:52:56.667Z,1014.54
2022-10-18T10:53:56.663Z,1014.56
2022-10-18T10:55:05.729Z,1014.54
2022-10-18T10:55:56.641Z,1014.56
2022-10-18T10:56:56.614Z,1014.56
2022-10-18T10:57:56.613Z,1014.56
2022-10-18T10:58:56.656Z,1014.57
2022-10-18T10:59:56.598Z,1014.58
2022-10-18T11:00:56.571Z,1014.59
2022-10-18T11:01:56.581Z,1014.61
2022-10-18T11:03:05.852Z,1014.63
2022-10-18T11:03:56.697Z,1014.64
2022-10-18T11:04:56.539Z,1014.64
2022-10-18T11:05:56.528Z,1014.62
2022-10-18T11:06:56.500Z,1014.61
2022-10-18T11:07:56.498Z,1014.61
2022-10-18T11:08:56.485Z,1014.62
2022-10-18T11:09:56.489Z,1014.61
2022-10-18T11:10:56.464Z,1014.62
2022-10-18T11:11:56.456Z,1014.60
2022-10-18T11:12:56.439Z,1014.61
2022-10-18T11:14:20.607Z,1014.61
2022-10-18T11:14:56.439Z,1014.61
2022-10-18T11:15:56.408Z,1014.63
2022-10-18T11:16:56.394Z,1014.64
2022-10-18T11:17:56.394Z,1014.62
2022-10-18T11:18:56.382Z,1014.58
2022-10-18T11:19:56.365Z,1014.55
2022-10-18T11:20:56.492Z,1014.53
2022-10-18T11:21:56.345Z,1014.54
2022-10-18T11:22:56.335Z,1014.58
2022-10-18T11:23:56.332Z,1014.63
2022-10-18T11:24:56.310Z,1014.67
2022-10-18T11:25:56.295Z,1014.67
2022-10-18T11:26:56.286Z,1014.64
2022-10-18T11:27:56.269Z,1014.60
2022-10-18T11:28:56.314Z,1014.55
2022-10-18T11:29:56.253Z,1014.53
2022-10-18T11:30:56.244Z,1014.54
2022-10-18T11:31:56.233Z,1014.54
2022-10-18T11:32:56.220Z,1014.58
2022-10-18T11:34:08.615Z,1014.60
2022-10-18T11:34:56.204Z,1014.62
2022-10-18T11:36:00.216Z,1014.59
2022-10-18T11:37:15.973Z,1014.56
2022-10-18T11:37:56.171Z,1014.54
2022-10-18T11:38:56.174Z,1014.52
2022-10-18T11:39:56.144Z,1014.50
2022-10-18T11:40:56.137Z,1014.48
2022-10-18T11:41:56.128Z,1014.50
2022-10-18T11:42:56.117Z,1014.52
2022-10-18T11:44:03.931Z,1014.53
2022-10-18T11:44:56.098Z,1014.54
2022-10-18T11:45:56.077Z,1014.53
2022-10-18T11:46:56.069Z,1014.53
2022-10-18T11:47:56.102Z,1014.51
2022-10-18T11:48:56.068Z,1014.49
2022-10-18T11:49:56.038Z,1014.45
2022-10-18T11:50:56.035Z,1014.44
2022-10-18T11:52:07.970Z,1014.46
2022-10-18T11:52:56.023Z,1014.49
2022-10-18T11:53:56.006Z,1014.50
2022-10-18T11:54:55.989Z,1014.52
2022-10-18T11:55:55.978Z,1014.54
2022-10-18T11:56:55.974Z,1014.49
2022-10-18T11:57:55.955Z,1014.47
2022-10-18T11:58:55.970Z,1014.45
2022-10-18T11:59:55.972Z,1014.46
2022-10-18T12:00:55.930Z,1014.44
2022-10-18T12:01:55.912Z,1014.47
2022-10-18T12:02:55.990Z,1014.44
2022-10-18T12:03:55.910Z,1014.45
2022-10-18T12:05:21.985Z,1014.45
2022-10-18T12:05:55.877Z,1014.44
2022-10-18T12:06:55.865Z,1014.46
2022-10-18T12:07:55.851Z,1014.45
2022-10-18T12:08:55.868Z,1014.41
2022-10-18T12:09:55.837Z,1014.39
2022-10-18T12:11:10.477Z,1014.38
2022-10-18T12:11:56.086Z,1014.38
2022-10-18T12:12:55.800Z,1014.37
2022-10-18T12:13:55.787Z,1014.40
2022-10-18T12:14:55.796Z,1014.41
2022-10-18T12:15:55.815Z,1014.39
2022-10-18T12:17:20.321Z,1014.41
2022-10-18T12:17:56.179Z,1014.41
2022-10-18T12:18:55.740Z,1014.39
2022-10-18T12:19:55.733Z,1014.36
2022-10-18T12:20:55.715Z,1014.36
2022-10-18T12:21:55.697Z,1014.40
2022-10-18T12:22:55.708Z,1014.40
2022-10-18T12:23:55.682Z,1014.43
2022-10-18T12:24:55.691Z,1014.43
2022-10-18T12:25:55.653Z,1014.43
2022-10-18T12:26:55.651Z,1014.40
2022-10-18T12:27:55.713Z,1014.40
2022-10-18T12:28:55.684Z,1014.39
2022-10-18T12:29:55.625Z,1014.38
2022-10-18T12:30:55.605Z,1014.37
2022-10-18T12:31:55.590Z,1014.36
2022-10-18T12:33:03.522Z,1014.37
2022-10-18T12:33:55.579Z,1014.37
2022-10-18T12:34:55.579Z,1014.42
2022-10-18T12:35:55.570Z,1014.44
2022-10-18T12:36:55.590Z,1014.46
2022-10-18T12:37:55.522Z,1014.46
2022-10-18T12:38:55.520Z,1014.43
2022-10-18T12:40:09.813Z,1014.39
2022-10-18T12:40:55.499Z,1014.35
2022-10-18T12:41:55.484Z,1014.37
2022-10-18T12:42:55.470Z,1014.34
2022-10-18T12:43:55.458Z,1014.36
2022-10-18T12:44:55.467Z,1014.39
2022-10-18T12:45:55.431Z,1014.40
2022-10-18T12:46:55.433Z,1014.39
2022-10-18T12:47:55.410Z,1014.36
2022-10-18T12:48:55.403Z,1014.33
2022-10-18T12:49:55.404Z,1014.31
2022-10-18T12:50:55.383Z,1014.29
2022-10-18T12:51:55.371Z,1014.30
2022-10-18T12:52:55.359Z,1014.26
2022-10-18T12:53:55.349Z,1014.32
2022-10-18T12:54:55.364Z,1014.35
2022-10-18T12:55:55.323Z,1014.35
2022-10-18T12:56:55.423Z,1014.36
2022-10-18T12:57:55.297Z,1014.36
2022-10-18T12:58:55.291Z,1014.35
2022-10-18T12:59:55.291Z,1014.35
2022-10-18T13:00:55.267Z,1014.36
2022-10-18T13:01:55.468Z,1014.36
2022-10-18T13:02:55.245Z,1014.38
2022-10-18T13:03:55.348Z,1014.39
2022-10-18T13:04:55.266Z,1014.37
2022-10-18T13:05:56.225Z,1014.37
2022-10-18T13:06:55.204Z,1014.38
2022-10-18T13:07:55.189Z,1014.38
2022-10-18T13:08:55.183Z,1014.35
2022-10-18T13:09:55.180Z,1014.33
2022-10-18T13:10:55.161Z,1014.32
2022-10-18T13:11:58.599Z,1014.29
2022-10-18T13:12:55.144Z,1014.30
2022-10-18T13:13:55.157Z,1014.35
2022-10-18T13:15:05.933Z,1014.39
2022-10-18T13:15:55.106Z,1014.43
2022-10-18T13:16:55.092Z,1014.43
2022-10-18T13:17:55.079Z,1014.40
2022-10-18T13:18:55.074Z,1014.37
2022-10-18T13:20:20.617Z,1014.34
2022-10-18T13:20:55.082Z,1014.34
2022-10-18T13:21:55.035Z,1014.37
2022-10-18T13:22:55.031Z,1014.38
2022-10-18T13:23:55.011Z,1014.41
2022-10-18T13:24:55.022Z,1014.40
2022-10-18T13:25:55.011Z,1014.39
2022-10-18T13:27:04.072Z,1014.36
2022-10-18T13:27:54.981Z,1014.31
2022-10-18T13:28:55.012Z,1014.30
2022-10-18T13:29:54.965Z,1014.28
2022-10-18T13:30:54.944Z,1014.25
2022-10-18T13:31:54.925Z,1014.27
2022-10-18T13:32:54.919Z,1014.29
2022-10-18T13:33:54.906Z,1014.26
2022-10-18T13:34:54.923Z,1014.26
2022-10-18T13:35:54.915Z,1014.23
2022-10-18T13:36:54.875Z,1014.20
2022-10-18T13:37:54.867Z,1014.19
2022-10-18T13:38:54.853Z,1014.22
2022-10-18T13:39:54.842Z,1014.24
2022-10-18T13:40:54.844Z,1014.26
2022-10-18T13:41:57.508Z,1014.30
2022-10-18T13:42:54.818Z,1014.30
2022-10-18T13:43:54.793Z,1014.28
2022-10-18T13:44:54.794Z,1014.27
2022-10-18T13:45:54.791Z,1014.27
2022-10-18T13:46:54.768Z,1014.25
2022-10-18T13:47:54.749Z,1014.25
2022-10-18T13:48:54.747Z,1014.27
2022-10-18T13:49:58.598Z,1014.29
2022-10-18T13:50:54.744Z,1014.30
2022-10-18T13:51:54.706Z,1014.30
2022-10-18T13:52:54.704Z,1014.28
2022-10-18T13:53:54.687Z,1014.25
2022-10-18T13:54:54.680Z,1014.23
2022-10-18T13:55:55.927Z,1014.23
2022-10-18T13:56:54.663Z,1014.26
2022-10-18T13:57:54.648Z,1014.29
2022-10-18T13:59:13.149Z,1014.32
2022-10-18T13:59:54.651Z,1014.32
2022-10-18T14:00:54.617Z,1014.33
2022-10-18T14:01:54.635Z,1014.29
2022-10-18T14:02:59.623Z,1014.30
2022-10-18T14:03:58.123Z,1014.29
2022-10-18T14:05:02.102Z,1014.31
2022-10-18T14:05:54.589Z,1014.33
2022-10-18T14:06:58.723Z,1014.35
2022-10-18T14:07:54.557Z,1014.35
2022-10-18T14:08:54.535Z,1014.33
2022-10-18T14:09:56.843Z,1014.31
2022-10-18T14:11:03.253Z,1014.32
2022-10-18T14:11:54.505Z,1014.34
2022-10-18T14:12:54.488Z,1014.34
2022-10-18T14:13:54.480Z,1014.33
2022-10-18T14:14:54.468Z,1014.32
2022-10-18T14:15:54.466Z,1014.34
2022-10-18T14:16:54.448Z,1014.32
2022-10-18T14:17:54.444Z,1014.34
2022-10-18T14:18:54.433Z,1014.35
2022-10-18T14:19:54.415Z,1014.35
2022-10-18T14:21:12.911Z,1014.36
2022-10-18T14:21:54.426Z,1014.35
2022-10-18T14:22:54.391Z,1014.34
2022-10-18T14:23:54.373Z,1014.36
2022-10-18T14:24:54.367Z,1014.36
2022-10-18T14:25:54.360Z,1014.37
2022-10-18T14:26:54.362Z,1014.41
2022-10-18T14:27:54.611Z,1014.41
2022-10-18T14:29:00.023Z,1014.42
2022-10-18T14:29:54.317Z,1014.40
2022-10-18T14:30:54.301Z,1014.41
2022-10-18T14:31:54.306Z,1014.41
2022-10-18T14:32:54.280Z,1014.42
2022-10-18T14:33:57.566Z,1014.44
2022-10-18T14:35:09.249Z,1014.47
2022-10-18T14:35:54.252Z,1014.47
2022-10-18T14:36:54.257Z,1014.48
2022-10-18T14:37:54.306Z,1014.48
2022-10-18T14:38:54.219Z,1014.46
2022-10-18T14:39:54.204Z,1014.47
2022-10-18T14:40:54.201Z,1014.48
2022-10-18T14:41:54.198Z,1014.49
2022-10-18T14:42:54.175Z,1014.50
2022-10-18T14:43:54.160Z,1014.49
2022-10-18T14:44:55.736Z,1014.49
2022-10-18T14:45:54.139Z,1014.47
2022-10-18T14:46:54.142Z,1014.47
2022-10-18T14:47:54.117Z,1014.45
2022-10-18T14:48:54.113Z,1014.46
2022-10-18T14:49:54.094Z,1014.46
2022-10-18T14:50:54.088Z,1014.46
2022-10-18T14:51:54.094Z,1014.47
2022-10-18T14:52:54.069Z,1014.49
2022-10-18T14:53:54.059Z,1014.48
2022-10-18T14:54:54.049Z,1014.49
2022-10-18T14:55:54.035Z,1014.53
2022-10-18T14:56:54.047Z,1014.50
2022-10-18T14:57:54.011Z,1014.50
2022-10-18T14:58:54.008Z,1014.50
2022-10-18T14:59:53.994Z,1014.50
2022-10-18T15:00:53.986Z,1014.49
2022-10-18T15:01:53.985Z,1014.48
2022-10-18T15:02:53.962Z,1014.50
2022-10-18T15:03:54.077Z,1014.50
2022-10-18T15:04:53.943Z,1014.52
2022-10-18T15:05:53.926Z,1014.53
2022-10-18T15:06:53.941Z,1014.52
2022-10-18T15:07:53.906Z,1014.53
2022-10-18T15:08:53.900Z,1014.52
2022-10-18T15:09:53.887Z,1014.54
2022-10-18T15:10:53.887Z,1014.54
2022-10-18T15:11:53.875Z,1014.54
2022-10-18T15:13:10.447Z,1014.55
2022-10-18T15:13:53.847Z,1014.54
2022-10-18T15:14:53.838Z,1014.57
2022-10-18T15:15:53.824Z,1014.58
2022-10-18T15:16:53.845Z,1014.61
2022-10-18T15:17:53.805Z,1014.60
2022-10-18T15:18:53.799Z,1014.59
2022-10-18T15:19:53.778Z,1014.58
2022-10-18T15:20:53.786Z,1014.57
2022-10-18T15:22:08.061Z,1014.57
2022-10-18T15:22:53.763Z,1014.58
2022-10-18T15:23:53.741Z,1014.58
2022-10-18T15:24:53.744Z,1014.58
2022-10-18T15:25:53.762Z,1014.57
2022-10-18T15:26:54.023Z,1014.55
2022-10-18T15:27:53.718Z,1014.54
2022-10-18T15:28:53.889Z,1014.54
2022-10-18T15:29:53.770Z,1014.54
2022-10-18T15:30:53.699Z,1014.57
2022-10-18T15:31:53.668Z,1014.57
2022-10-18T15:32:53.645Z,1014.55
2022-10-18T15:33:53.627Z,1014.54
2022-10-18T15:34:53.626Z,1014.53
2022-10-18T15:35:53.618Z,1014.53
2022-10-18T15:36:53.620Z,1014.55
2022-10-18T15:37:53.585Z,1014.57
2022-10-18T15:38:53.587Z,1014.57
2022-10-18T15:39:53.571Z,1014.57
2022-10-18T15:40:53.552Z,1014.57
2022-10-18T15:41:53.567Z,1014.58
2022-10-18T15:42:53.529Z,1014.60
2022-10-18T15:43:53.528Z,1014.63
2022-10-18T15:44:53.511Z,1014.65
2022-10-18T15:45:53.511Z,1014.67
2022-10-18T15:46:53.510Z,1014.67
2022-10-18T15:47:53.570Z,1014.67
2022-10-18T15:48:53.466Z,1014.67
2022-10-18T15:49:53.465Z,1014.67
2022-10-18T15:50:53.444Z,1014.67
2022-10-18T15:51:53.457Z,1014.68
2022-10-18T15:52:53.423Z,1014.69
2022-10-18T15:53:53.420Z,1014.69
2022-10-18T15:54:53.401Z,1014.68
2022-10-18T15:55:53.394Z,1014.67
2022-10-18T15:56:53.393Z,1014.65
2022-10-18T15:57:53.370Z,1014.64
2022-10-18T15:58:53.356Z,1014.64
2022-10-18T15:59:53.361Z,1014.65
2022-10-18T16:00:53.333Z,1014.65
2022-10-18T16:01:53.468Z,1014.64
2022-10-18T16:02:53.314Z,1014.64
2022-10-18T16:04:53.291Z,1014.65
2022-10-18T16:05:53.292Z,1014.65
2022-10-18T16:06:53.287Z,1014.65
2022-10-18T16:07:53.265Z,1014.64
2022-10-18T16:08:53.249Z,1014.63
2022-10-18T16:09:53.246Z,1014.63
2022-10-18T16:10:53.225Z,1014.65
2022-10-18T16:11:57.008Z,1014.67
2022-10-18T16:13:56.374Z,1014.70
2022-10-18T16:14:53.184Z,1014.70
2022-10-18T16:15:53.180Z,1014.69
2022-10-18T16:16:53.190Z,1014.68
2022-10-18T16:17:53.153Z,1014.68
2022-10-18T16:18:53.142Z,1014.69
2022-10-18T16:19:53.127Z,1014.71
2022-10-18T16:20:53.115Z,1014.74
2022-10-18T16:21:53.273Z,1014.76
2022-10-18T16:22:53.090Z,1014.76
2022-10-18T16:23:53.097Z,1014.75
2022-10-18T16:24:53.076Z,1014.73
2022-10-18T16:25:53.066Z,1014.72
2022-10-18T16:26:53.086Z,1014.71
2022-10-18T16:27:53.050Z,1014.72
2022-10-18T16:28:53.192Z,1014.74
2022-10-18T16:29:53.025Z,1014.76
2022-10-18T16:30:53.004Z,1014.77
2022-10-18T16:31:53.014Z,1014.77
2022-10-18T16:32:52.984Z,1014.78
2022-10-18T16:33:52.985Z,1014.81
2022-10-18T16:34:52.964Z,1014.85
2022-10-18T16:35:52.954Z,1014.89
2022-10-18T16:36:52.954Z,1014.92
2022-10-18T16:37:52.936Z,1014.94
2022-10-18T16:38:52.917Z,1014.93
2022-10-18T16:39:52.917Z,1014.93
2022-10-18T16:40:52.897Z,1014.91
2022-10-18T16:41:52.905Z,1014.92
2022-10-18T16:42:52.877Z,1014.93
2022-10-18T16:43:52.868Z,1014.92
2022-10-18T16:44:52.860Z,1014.91
2022-10-18T16:45:52.849Z,1014.90
2022-10-18T16:46:55.487Z,1014.91
2022-10-18T16:47:52.827Z,1014.92
2022-10-18T16:48:52.814Z,1014.94
2022-10-18T16:49:52.813Z,1014.96
2022-10-18T16:50:52.795Z,1014.97
2022-10-18T16:51:52.810Z,1014.96
2022-10-18T16:52:52.778Z,1014.96
2022-10-18T16:53:52.768Z,1014.95
2022-10-18T16:54:52.756Z,1014.96